Time;durP1;ratioP1;P1;durP2;ratioP2;P2;SDS_P1;SDS_P2;PMS_P1;PMS_P2;Temp;Humidity;BMP_temperature;BMP_pressure;BME280_temperature;BME280_humidity;BME280_pressure;Samples;Min_cycle;Max_cycle;Signal;HPM_P1;HPM_P2
2021/12/02 00:00:28;;;;;;;8.63;1.95;;;;;;;;;;5040352;28;20061;-70
2021/12/02 00:02:55;;;;;;;11.65;2.03;;;;;;;;;;5031725;28;20053;-70
2021/12/02 00:05:22;;;;;;;8.38;1.80;;;;;;;;;;5042878;28;20484;-70
2021/12/02 00:07:49;;;;;;;8.27;1.85;;;;;;;;;;5043793;28;20099;-69
2021/12/02 00:10:15;;;;;;;10.15;2.08;;;;;;;;;;5033062;28;20053;-70
2021/12/02 00:12:41;;;;;;;12.63;1.88;;;;;;;;;;5041730;28;20059;-70
2021/12/02 00:15:12;;;;;;;11.55;1.75;;;;;;;;;;5038962;28;20065;-70
2021/12/02 00:17:41;;;;;;;9.73;1.95;;;;;;;;;;5043447;28;20060;-70
2021/12/02 00:23:11;;;;;;;9.27;1.60;;;;;;;;;;5038792;28;20045;-69
2021/12/02 00:25:37;;;;;;;9.35;2.08;;;;;;;;;;5032812;28;20045;-70
2021/12/02 00:28:04;;;;;;;7.50;2.28;;;;;;;;;;5039222;28;20052;-70
2021/12/02 00:30:31;;;;;;;13.02;2.58;;;;;;;;;;5042659;28;20095;-70
2021/12/02 00:33:00;;;;;;;6.53;1.55;;;;;;;;;;5034604;28;20060;-70
2021/12/02 00:35:26;;;;;;;9.02;1.58;;;;;;;;;;5041718;28;20446;-70
2021/12/02 00:37:53;;;;;;;9.88;1.67;;;;;;;;;;5028500;28;20505;-70
2021/12/02 00:40:19;;;;;;;7.70;1.67;;;;;;;;;;5034438;28;20805;-69
2021/12/02 00:42:46;;;;;;;6.03;1.42;;;;;;;;;;5033875;28;20502;-70
2021/12/02 00:45:12;;;;;;;8.65;1.70;;;;;;;;;;5038901;28;20152;-70
2021/12/02 00:47:39;;;;;;;8.10;1.45;;;;;;;;;;5040104;28;20064;-70
2021/12/02 00:50:05;;;;;;;6.65;1.02;;;;;;;;;;5030568;28;20055;-69
2021/12/02 00:52:32;;;;;;;7.68;1.42;;;;;;;;;;5033453;28;20239;-70
2021/12/02 00:54:59;;;;;;;6.57;1.10;;;;;;;;;;5032434;28;20045;-70
2021/12/02 01:04:22;;;;;;;7.43;1.15;;;;;;;;;;5036981;28;20335;-70
2021/12/02 01:06:50;;;;;;;8.85;1.15;;;;;;;;;;5023823;28;20060;-70
2021/12/02 01:09:16;;;;;;;7.57;1.33;;;;;;;;;;5039781;28;20075;-70
2021/12/02 01:11:43;;;;;;;3.38;1.10;;;;;;;;;;5033831;28;20048;-70
2021/12/02 01:14:11;;;;;;;5.15;1.02;;;;;;;;;;5039374;28;20136;-70
2021/12/02 01:16:37;;;;;;;6.95;1.45;;;;;;;;;;5039464;28;20459;-70
2021/12/02 01:19:04;;;;;;;5.10;1.08;;;;;;;;;;5027399;28;20053;-70
2021/12/02 01:21:31;;;;;;;3.00;1.00;;;;;;;;;;5034784;28;20052;-70
2021/12/02 01:23:58;;;;;;;6.93;1.40;;;;;;;;;;5029712;28;20417;-70
2021/12/02 01:26:27;;;;;;;6.50;1.23;;;;;;;;;;5039139;28;20052;-70
2021/12/02 01:28:53;;;;;;;4.68;1.10;;;;;;;;;;5031617;28;20051;-70
2021/12/02 01:31:21;;;;;;;5.80;1.38;;;;;;;;;;5040715;28;20402;-70
2021/12/02 01:33:47;;;;;;;3.90;1.02;;;;;;;;;;5031993;28;20053;-70
2021/12/02 01:36:14;;;;;;;5.88;1.20;;;;;;;;;;5031996;28;20466;-70
2021/12/02 01:38:41;;;;;;;6.13;1.25;;;;;;;;;;5037340;28;20048;-70
2021/12/02 01:41:07;;;;;;;6.82;1.40;;;;;;;;;;5032630;28;20060;-70
2021/12/02 01:43:42;;;;;;;5.50;1.15;;;;;;;;;;5039098;28;20056;-70
2021/12/02 01:46:09;;;;;;;5.65;1.25;;;;;;;;;;5027938;28;20048;-69
2021/12/02 01:48:39;;;;;;;8.43;1.73;;;;;;;;;;5034359;28;20500;-70
2021/12/02 01:51:06;;;;;;;4.57;1.17;;;;;;;;;;5030195;28;20045;-70
2021/12/02 01:53:35;;;;;;;12.63;1.67;;;;;;;;;;5038983;28;20049;-69
2021/12/02 01:56:11;;;;;;;5.05;1.65;;;;;;;;;;5038850;28;20055;-69
2021/12/02 01:58:48;;;;;;;5.10;1.00;;;;;;;;;;5029763;28;20052;-70
2021/12/02 02:01:23;;;;;;;7.60;1.55;;;;;;;;;;5033249;28;20437;-69
2021/12/02 02:03:50;;;;;;;6.68;1.75;;;;;;;;;;5027161;28;20684;-71
2021/12/02 02:06:29;;;;;;;7.30;1.20;;;;;;;;;;5038702;28;20792;-69
2021/12/02 02:08:56;;;;;;;5.10;1.05;;;;;;;;;;5030674;28;20136;-69
2021/12/02 02:11:26;;;;;;;7.00;1.30;;;;;;;;;;5038577;28;20049;-69
2021/12/02 02:13:53;;;;;;;3.63;1.10;;;;;;;;;;5027568;28;20258;-70
2021/12/02 02:16:20;;;;;;;6.15;1.10;;;;;;;;;;5032430;28;20049;-69
2021/12/02 02:18:47;;;;;;;8.98;1.33;;;;;;;;;;5037745;28;20426;-70
2021/12/02 02:21:16;;;;;;;3.35;0.80;;;;;;;;;;5030293;28;20433;-70
2021/12/02 02:23:48;;;;;;;9.57;1.58;;;;;;;;;;5038438;28;20056;-69
2021/12/02 02:26:21;;;;;;;1.75;0.82;;;;;;;;;;5031076;28;20053;-70
2021/12/02 02:28:48;;;;;;;6.18;1.40;;;;;;;;;;5032126;28;20067;-69
2021/12/02 02:31:14;;;;;;;6.38;1.10;;;;;;;;;;5026100;28;20053;-69
2021/12/02 02:33:41;;;;;;;7.85;1.10;;;;;;;;;;5038340;28;20057;-69
2021/12/02 02:36:08;;;;;;;5.05;0.90;;;;;;;;;;5037327;28;20048;-69
2021/12/02 02:38:35;;;;;;;5.13;0.90;;;;;;;;;;5029069;28;20364;-70
2021/12/02 02:41:04;;;;;;;4.00;0.75;;;;;;;;;;5036445;28;20037;-69
2021/12/02 02:43:32;;;;;;;4.25;0.70;;;;;;;;;;5022841;28;20053;-69
2021/12/02 02:45:59;;;;;;;3.92;0.60;;;;;;;;;;5037035;28;20052;-70
2021/12/02 02:48:25;;;;;;;5.70;1.00;;;;;;;;;;5030283;28;20053;-70
2021/12/02 02:50:51;;;;;;;4.28;1.02;;;;;;;;;;5036568;28;20057;-70
2021/12/02 02:53:22;;;;;;;4.72;0.98;;;;;;;;;;5037521;28;20053;-69
2021/12/02 02:56:05;;;;;;;5.03;1.00;;;;;;;;;;5026044;28;20755;-69
2021/12/02 02:58:47;;;;;;;8.60;1.05;;;;;;;;;;5032604;28;20052;-68
2021/12/02 03:01:52;;;;;;;2.05;0.80;;;;;;;;;;5030258;28;20294;-69
2021/12/02 03:04:56;;;;;;;6.10;0.95;;;;;;;;;;5038548;28;20354;-69
2021/12/02 03:12:40;;;;;;;5.90;1.55;;;;;;;;;;5025024;28;20037;-68
2021/12/02 03:17:33;;;;;;;4.53;0.70;;;;;;;;;;5030180;28;20040;-68
2021/12/02 03:19:59;;;;;;;4.82;1.00;;;;;;;;;;5036321;28;20045;-68
2021/12/02 03:22:26;;;;;;;0.70;0.60;;;;;;;;;;5030517;28;20049;-68
2021/12/02 03:24:52;;;;;;;3.25;0.65;;;;;;;;;;5031047;28;20053;-69
2021/12/02 03:27:19;;;;;;;4.47;1.02;;;;;;;;;;5034454;28;20041;-69
2021/12/02 03:29:45;;;;;;;4.30;0.82;;;;;;;;;;5028589;28;20509;-68
2021/12/02 03:32:12;;;;;;;4.55;0.90;;;;;;;;;;5038143;28;20505;-68
2021/12/02 03:34:39;;;;;;;3.70;0.60;;;;;;;;;;5032142;28;20044;-68
2021/12/02 03:37:06;;;;;;;5.60;0.70;;;;;;;;;;5032600;28;20485;-68
2021/12/02 03:39:32;;;;;;;2.00;0.45;;;;;;;;;;5023298;28;20056;-68
2021/12/02 03:41:59;;;;;;;3.30;0.43;;;;;;;;;;5040527;28;20414;-68
2021/12/02 03:44:26;;;;;;;6.78;0.60;;;;;;;;;;5041429;28;20045;-68
2021/12/02 03:46:53;;;;;;;4.00;0.60;;;;;;;;;;5032203;28;20056;-68
2021/12/02 03:49:20;;;;;;;2.83;0.50;;;;;;;;;;5038785;28;20128;-68
2021/12/02 03:51:46;;;;;;;1.98;0.60;;;;;;;;;;5027389;28;20045;-68
2021/12/02 03:54:12;;;;;;;2.38;0.55;;;;;;;;;;5034155;28;20099;-68
2021/12/02 03:56:39;;;;;;;1.73;0.70;;;;;;;;;;5031784;28;20044;-68
2021/12/02 03:59:06;;;;;;;3.35;0.60;;;;;;;;;;5039745;28;20144;-68
2021/12/02 04:01:32;;;;;;;2.75;0.40;;;;;;;;;;5040541;28;20045;-68
2021/12/02 04:03:59;;;;;;;3.80;0.40;;;;;;;;;;5031346;28;20037;-68
2021/12/02 04:06:25;;;;;;;2.38;0.50;;;;;;;;;;5031629;28;20545;-68
2021/12/02 04:08:59;;;;;;;1.75;0.30;;;;;;;;;;5030740;28;20076;-68
2021/12/02 04:11:35;;;;;;;1.13;0.20;;;;;;;;;;5039701;28;20053;-68
2021/12/02 04:16:54;;;;;;;2.60;0.30;;;;;;;;;;5040570;28;20052;-68
2021/12/02 04:19:21;;;;;;;2.83;0.40;;;;;;;;;;5037908;28;20101;-69
2021/12/02 04:21:48;;;;;;;1.13;0.30;;;;;;;;;;5029265;28;20053;-72
2021/12/02 04:24:14;;;;;;;2.22;0.45;;;;;;;;;;5040432;28;20053;-69
2021/12/02 04:26:42;;;;;;;1.55;0.20;;;;;;;;;;5031034;28;20124;-69
2021/12/02 04:29:09;;;;;;;1.17;0.20;;;;;;;;;;5040056;28;20390;-69
2021/12/02 04:31:35;;;;;;;5.68;0.57;;;;;;;;;;5031184;28;20384;-69
2021/12/02 04:34:02;;;;;;;1.35;0.38;;;;;;;;;;5033563;28;20106;-68
2021/12/02 04:36:28;;;;;;;1.67;0.40;;;;;;;;;;5033822;28;20529;-69
2021/12/02 04:38:54;;;;;;;6.68;0.90;;;;;;;;;;5033460;28;20059;-68
2021/12/02 04:41:21;;;;;;;1.80;0.57;;;;;;;;;;5039887;28;20657;-68
2021/12/02 04:43:47;;;;;;;2.05;0.40;;;;;;;;;;5032780;28;20045;-68
2021/12/02 04:46:14;;;;;;;1.35;0.38;;;;;;;;;;5039557;28;20414;-68
2021/12/02 04:48:41;;;;;;;1.42;0.40;;;;;;;;;;5027603;28;20673;-68
2021/12/02 04:51:07;;;;;;;1.05;0.28;;;;;;;;;;5038560;28;20055;-68
2021/12/02 04:53:33;;;;;;;1.83;0.50;;;;;;;;;;5039281;28;20479;-69
2021/12/02 04:55:59;;;;;;;3.17;0.73;;;;;;;;;;5030632;28;20402;-68
2021/12/02 04:58:26;;;;;;;3.38;0.50;;;;;;;;;;5039424;28;20508;-68
2021/12/02 05:00:52;;;;;;;2.28;0.60;;;;;;;;;;5026630;28;20053;-68
2021/12/02 05:03:18;;;;;;;2.03;1.08;;;;;;;;;;5034311;28;20099;-69
2021/12/02 05:05:45;;;;;;;3.97;0.60;;;;;;;;;;5034833;28;20059;-68
2021/12/02 05:08:12;;;;;;;2.22;0.68;;;;;;;;;;5040734;28;20055;-68
2021/12/02 05:10:38;;;;;;;4.45;0.90;;;;;;;;;;5040564;28;20056;-68
2021/12/02 05:13:04;;;;;;;1.27;0.60;;;;;;;;;;5034269;28;20044;-69
2021/12/02 05:15:31;;;;;;;2.55;0.82;;;;;;;;;;5036357;28;20063;-68
2021/12/02 05:17:57;;;;;;;4.13;0.80;;;;;;;;;;5027132;28;20433;-69
2021/12/02 05:20:24;;;;;;;2.33;0.70;;;;;;;;;;5039405;28;20056;-68
2021/12/02 05:22:50;;;;;;;5.95;1.00;;;;;;;;;;5030677;28;20064;-68
2021/12/02 05:25:16;;;;;;;3.53;0.85;;;;;;;;;;5038786;28;20418;-68
2021/12/02 05:27:43;;;;;;;1.83;0.60;;;;;;;;;;5038330;28;20052;-69
2021/12/02 05:30:09;;;;;;;2.60;1.10;;;;;;;;;;5023854;28;20049;-68
2021/12/02 05:32:36;;;;;;;4.22;1.02;;;;;;;;;;5034146;28;20409;-69
2021/12/02 05:35:03;;;;;;;3.40;1.00;;;;;;;;;;5033062;28;20048;-68
2021/12/02 05:37:29;;;;;;;5.30;0.90;;;;;;;;;;5040328;28;20045;-68
2021/12/02 05:39:56;;;;;;;6.00;1.00;;;;;;;;;;5030565;28;20048;-68
2021/12/02 05:42:22;;;;;;;5.95;1.05;;;;;;;;;;5034756;28;20049;-68
2021/12/02 05:44:51;;;;;;;3.50;0.80;;;;;;;;;;5030584;28;20041;-68
2021/12/02 05:47:17;;;;;;;3.90;0.70;;;;;;;;;;5029506;28;20041;-68
2021/12/02 05:49:43;;;;;;;2.42;0.60;;;;;;;;;;5036584;28;20053;-68
2021/12/02 05:52:15;;;;;;;2.38;0.50;;;;;;;;;;5029285;28;20312;-68
2021/12/02 05:54:41;;;;;;;5.07;0.57;;;;;;;;;;5037920;28;20053;-70
2021/12/02 05:57:08;;;;;;;2.45;0.60;;;;;;;;;;5026359;28;20060;-67
2021/12/02 05:59:34;;;;;;;4.72;1.02;;;;;;;;;;5033643;28;20068;-70
2021/12/02 06:02:00;;;;;;;2.78;0.55;;;;;;;;;;5035046;28;20053;-69
2021/12/02 06:04:27;;;;;;;2.65;0.43;;;;;;;;;;5029093;28;20053;-69
2021/12/02 06:06:53;;;;;;;0.40;0.40;;;;;;;;;;5036578;28;20763;-69
2021/12/02 06:09:19;;;;;;;2.47;0.63;;;;;;;;;;5029001;28;20053;-69
2021/12/02 06:11:46;;;;;;;2.15;0.40;;;;;;;;;;5032280;28;20056;-69
2021/12/02 06:14:14;;;;;;;2.17;0.60;;;;;;;;;;5025656;28;20047;-69
2021/12/02 06:16:41;;;;;;;1.65;0.38;;;;;;;;;;5037232;28;20504;-70
2021/12/02 06:19:07;;;;;;;3.88;0.55;;;;;;;;;;5038524;28;20060;-70
2021/12/02 06:21:35;;;;;;;3.53;0.50;;;;;;;;;;5027341;28;20168;-69
2021/12/02 06:24:04;;;;;;;3.15;0.50;;;;;;;;;;5035154;28;20505;-69
2021/12/02 06:26:30;;;;;;;1.10;0.50;;;;;;;;;;5020359;28;20045;-69
2021/12/02 06:28:57;;;;;;;2.35;0.50;;;;;;;;;;5035250;28;20060;-69
2021/12/02 06:31:24;;;;;;;3.85;0.57;;;;;;;;;;5028656;28;20041;-69
2021/12/02 06:33:50;;;;;;;1.98;0.50;;;;;;;;;;5037293;28;20053;-69
2021/12/02 06:36:17;;;;;;;2.00;0.88;;;;;;;;;;5036291;28;20093;-69
2021/12/02 06:38:57;;;;;;;1.35;0.85;;;;;;;;;;5030638;28;20270;-69
2021/12/02 06:41:23;;;;;;;5.10;1.10;;;;;;;;;;5031475;28;20056;-69
2021/12/02 06:43:49;;;;;;;2.65;0.88;;;;;;;;;;5029471;28;20053;-69
2021/12/02 06:46:16;;;;;;;3.30;0.60;;;;;;;;;;5039676;28;20053;-69
2021/12/02 06:48:43;;;;;;;0.63;0.40;;;;;;;;;;5031397;28;20051;-69
2021/12/02 06:51:12;;;;;;;2.72;0.60;;;;;;;;;;5037793;28;20049;-69
2021/12/02 06:53:42;;;;;;;3.70;0.70;;;;;;;;;;5024029;28;20047;-69
2021/12/02 06:56:09;;;;;;;2.42;0.63;;;;;;;;;;5033342;28;20063;-69
2021/12/02 06:58:35;;;;;;;2.53;0.93;;;;;;;;;;5037438;28;20935;-68
2021/12/02 07:01:02;;;;;;;6.47;1.00;;;;;;;;;;5029519;28;20045;-68
2021/12/02 07:03:29;;;;;;;1.45;0.70;;;;;;;;;;5037763;28;20056;-69
2021/12/02 07:05:55;;;;;;;6.22;0.73;;;;;;;;;;5026983;28;20045;-68
2021/12/02 07:08:21;;;;;;;2.38;0.82;;;;;;;;;;5031011;28;20045;-69
2021/12/02 07:10:48;;;;;;;1.77;0.60;;;;;;;;;;5028889;28;20415;-68
2021/12/02 07:13:14;;;;;;;3.65;0.50;;;;;;;;;;5038021;28;20053;-69
2021/12/02 07:15:45;;;;;;;3.05;0.73;;;;;;;;;;5041273;28;20166;-69
2021/12/02 07:18:15;;;;;;;1.85;0.70;;;;;;;;;;5033662;28;20347;-68
2021/12/02 07:20:42;;;;;;;0.60;0.50;;;;;;;;;;5036466;28;20051;-69
2021/12/02 07:23:09;;;;;;;3.85;0.88;;;;;;;;;;5028520;28;20061;-69
2021/12/02 07:25:37;;;;;;;4.82;1.17;;;;;;;;;;5041051;28;20049;-70
2021/12/02 07:28:03;;;;;;;1.92;0.77;;;;;;;;;;5030707;28;20057;-69
2021/12/02 07:30:30;;;;;;;4.10;0.80;;;;;;;;;;5040755;28;20069;-70
2021/12/02 07:32:57;;;;;;;1.52;0.70;;;;;;;;;;5038756;28;20102;-69
2021/12/02 07:35:24;;;;;;;2.03;0.65;;;;;;;;;;5032168;28;20044;-70
2021/12/02 07:37:52;;;;;;;2.70;0.80;;;;;;;;;;5041380;28;20052;-69
2021/12/02 07:40:19;;;;;;;1.67;0.70;;;;;;;;;;5030850;28;20045;-68
2021/12/02 07:42:46;;;;;;;4.65;0.95;;;;;;;;;;5042019;28;20076;-68
2021/12/02 07:45:13;;;;;;;4.78;0.98;;;;;;;;;;5030021;28;20041;-69
2021/12/02 07:47:40;;;;;;;1.65;0.90;;;;;;;;;;5034309;28;20518;-69
2021/12/02 07:50:08;;;;;;;2.85;1.20;;;;;;;;;;5040257;28;20053;-70
2021/12/02 07:52:35;;;;;;;3.70;0.90;;;;;;;;;;5031306;28;20059;-69
2021/12/02 07:55:07;;;;;;;6.35;1.30;;;;;;;;;;5040836;28;20055;-69
2021/12/02 07:57:34;;;;;;;5.18;1.63;;;;;;;;;;5030999;28;20770;-69
2021/12/02 08:00:00;;;;;;;2.00;1.35;;;;;;;;;;5036501;28;20048;-68
2021/12/02 08:02:32;;;;;;;3.30;1.70;;;;;;;;;;5035515;28;20049;-69
2021/12/02 08:04:59;;;;;;;3.60;1.60;;;;;;;;;;5041499;28;20060;-69
2021/12/02 08:07:26;;;;;;;4.47;1.73;;;;;;;;;;5042479;28;20482;-69
2021/12/02 08:09:52;;;;;;;5.40;1.70;;;;;;;;;;5033895;28;20049;-69
2021/12/02 08:12:18;;;;;;;4.18;2.03;;;;;;;;;;5040568;28;20387;-68
2021/12/02 08:14:45;;;;;;;5.10;1.60;;;;;;;;;;5032648;28;20106;-69
2021/12/02 08:17:11;;;;;;;2.67;1.63;;;;;;;;;;5040862;28;20055;-69
2021/12/02 08:19:37;;;;;;;6.20;1.90;;;;;;;;;;5032342;28;20483;-69
2021/12/02 08:22:04;;;;;;;6.88;1.77;;;;;;;;;;5034555;28;20052;-69
2021/12/02 08:24:30;;;;;;;4.80;1.90;;;;;;;;;;5036530;28;20045;-69
2021/12/02 08:26:56;;;;;;;7.97;1.60;;;;;;;;;;5030801;28;20045;-70
2021/12/02 08:29:23;;;;;;;5.40;1.65;;;;;;;;;;5040175;28;20413;-69
2021/12/02 08:31:49;;;;;;;8.32;1.95;;;;;;;;;;5031920;28;20048;-69
2021/12/02 08:34:17;;;;;;;4.43;1.38;;;;;;;;;;5035812;28;20368;-69
2021/12/02 08:36:46;;;;;;;5.07;1.80;;;;;;;;;;5026247;28;20053;-69
2021/12/02 08:39:17;;;;;;;3.33;1.90;;;;;;;;;;5034647;28;20414;-69
2021/12/02 08:41:47;;;;;;;4.97;2.28;;;;;;;;;;5039546;28;20480;-69
2021/12/02 08:44:14;;;;;;;8.88;2.78;;;;;;;;;;5031337;28;20125;-70
2021/12/02 08:46:41;;;;;;;6.28;1.83;;;;;;;;;;5034635;28;20055;-69
2021/12/02 08:49:07;;;;;;;7.90;2.22;;;;;;;;;;5026538;28;20063;-69
2021/12/02 08:51:33;;;;;;;6.35;2.67;;;;;;;;;;5038823;28;20067;-69
2021/12/02 08:54:00;;;;;;;5.00;1.90;;;;;;;;;;5032799;28;20366;-68
2021/12/02 08:56:26;;;;;;;3.75;1.67;;;;;;;;;;5039255;28;20056;-68
2021/12/02 08:58:53;;;;;;;6.13;2.30;;;;;;;;;;5038566;28;20091;-69
2021/12/02 09:01:19;;;;;;;5.82;2.08;;;;;;;;;;5027159;28;20048;-68
2021/12/02 09:03:46;;;;;;;4.82;1.80;;;;;;;;;;5034906;28;20854;-69
2021/12/02 09:06:12;;;;;;;4.55;1.80;;;;;;;;;;5031785;28;20061;-68
2021/12/02 09:08:40;;;;;;;5.05;1.83;;;;;;;;;;5039592;28;20425;-68
2021/12/02 09:11:06;;;;;;;6.22;2.00;;;;;;;;;;5030422;28;20056;-69
2021/12/02 09:13:32;;;;;;;4.13;1.63;;;;;;;;;;5040394;28;20056;-69
2021/12/02 09:15:59;;;;;;;4.03;2.22;;;;;;;;;;5030877;28;20071;-69
2021/12/02 09:18:26;;;;;;;3.90;1.42;;;;;;;;;;5029383;28;20057;-69
2021/12/02 09:20:52;;;;;;;7.18;1.70;;;;;;;;;;5038810;28;20049;-69
2021/12/02 09:23:19;;;;;;;4.32;1.52;;;;;;;;;;5030489;28;20084;-69
2021/12/02 09:25:45;;;;;;;2.63;1.33;;;;;;;;;;5039066;28;20584;-69
2021/12/02 09:28:11;;;;;;;4.28;1.67;;;;;;;;;;5027322;28;20055;-68
2021/12/02 09:30:40;;;;;;;3.30;1.30;;;;;;;;;;5033844;28;20057;-69
2021/12/02 09:33:07;;;;;;;7.65;2.00;;;;;;;;;;5038242;28;20048;-68
2021/12/02 09:35:35;;;;;;;5.88;1.35;;;;;;;;;;5031234;28;20058;-69
2021/12/02 09:38:02;;;;;;;2.92;1.20;;;;;;;;;;5037756;28;20041;-68
2021/12/02 09:40:28;;;;;;;8.05;1.27;;;;;;;;;;5029407;28;20080;-69
2021/12/02 09:42:55;;;;;;;3.03;1.20;;;;;;;;;;5033364;28;20143;-68
2021/12/02 09:45:21;;;;;;;3.58;1.42;;;;;;;;;;5028623;28;20049;-69
2021/12/02 09:47:48;;;;;;;5.93;1.40;;;;;;;;;;5040691;28;20455;-69
2021/12/02 09:50:22;;;;;;;3.35;1.30;;;;;;;;;;5039968;28;20402;-69
2021/12/02 09:52:49;;;;;;;6.70;1.55;;;;;;;;;;5033227;28;20064;-69
2021/12/02 09:55:30;;;;;;;4.95;1.30;;;;;;;;;;5040215;28;20182;-69
2021/12/02 09:57:58;;;;;;;5.18;1.45;;;;;;;;;;5025477;28;20083;-68
2021/12/02 10:00:38;;;;;;;2.40;1.00;;;;;;;;;;5036587;28;20052;-68
2021/12/02 10:03:16;;;;;;;1.73;1.10;;;;;;;;;;5029925;28;20049;-69
2021/12/02 10:05:53;;;;;;;2.00;1.08;;;;;;;;;;5036378;28;20063;-69
2021/12/02 10:08:24;;;;;;;4.38;0.88;;;;;;;;;;5029072;28;20060;-69
2021/12/02 10:10:55;;;;;;;3.10;0.77;;;;;;;;;;5033482;28;20056;-69
2021/12/02 10:16:06;;;;;;;6.38;0.98;;;;;;;;;;5032844;28;20045;-69
2021/12/02 10:21:39;;;;;;;2.40;0.77;;;;;;;;;;5032516;28;20084;-69
2021/12/02 10:24:11;;;;;;;1.73;0.60;;;;;;;;;;5031364;28;20048;-68
2021/12/02 10:26:39;;;;;;;3.50;0.95;;;;;;;;;;5026571;28;20052;-68
2021/12/02 10:29:22;;;;;;;1.65;0.70;;;;;;;;;;5039365;28;20061;-68
2021/12/02 10:32:03;;;;;;;3.22;0.90;;;;;;;;;;5032274;28;20426;-68
2021/12/02 10:34:30;;;;;;;2.22;1.08;;;;;;;;;;5039806;28;20052;-68
2021/12/02 10:37:08;;;;;;;0.65;0.60;;;;;;;;;;5027933;28;20052;-68
2021/12/02 10:39:34;;;;;;;3.58;0.68;;;;;;;;;;5032051;28;20064;-68
2021/12/02 10:42:05;;;;;;;3.20;0.80;;;;;;;;;;5031779;28;20045;-68
2021/12/02 10:44:35;;;;;;;1.98;0.80;;;;;;;;;;5038334;28;20140;-68
2021/12/02 10:47:09;;;;;;;2.67;0.80;;;;;;;;;;5039059;28;20944;-68
2021/12/02 10:49:39;;;;;;;3.13;0.80;;;;;;;;;;5031651;28;20458;-69
2021/12/02 10:52:06;;;;;;;2.90;1.10;;;;;;;;;;5033118;28;20162;-68
2021/12/02 10:54:34;;;;;;;1.98;1.13;;;;;;;;;;5029368;28;20057;-69
2021/12/02 10:57:07;;;;;;;2.20;0.87;;;;;;;;;;5039420;28;20055;-69
2021/12/02 10:59:35;;;;;;;2.03;0.82;;;;;;;;;;5032306;28;20165;-69
2021/12/02 11:02:03;;;;;;;3.00;1.00;;;;;;;;;;5038302;28;20057;-69
2021/12/02 11:04:41;;;;;;;3.65;0.95;;;;;;;;;;5035673;28;20777;-68
2021/12/02 11:07:11;;;;;;;2.78;1.15;;;;;;;;;;5032050;28;20041;-69
2021/12/02 11:09:39;;;;;;;3.28;0.90;;;;;;;;;;5036430;28;20045;-69
2021/12/02 11:12:08;;;;;;;2.13;0.70;;;;;;;;;;5031315;28;20055;-68
2021/12/02 11:14:35;;;;;;;3.22;0.85;;;;;;;;;;5036255;28;20792;-68
2021/12/02 11:17:07;;;;;;;4.90;0.90;;;;;;;;;;5028205;28;20052;-69
2021/12/02 11:19:34;;;;;;;3.72;1.00;;;;;;;;;;5032228;28;20060;-69
2021/12/02 11:22:05;;;;;;;2.85;1.42;;;;;;;;;;5024687;28;20678;-69
2021/12/02 11:24:32;;;;;;;3.13;0.82;;;;;;;;;;5037016;28;20056;-68
2021/12/02 11:27:09;;;;;;;4.35;0.95;;;;;;;;;;5037102;28;20072;-68
2021/12/02 11:29:49;;;;;;;1.92;0.63;;;;;;;;;;5029145;28;20053;-68
2021/12/02 11:32:27;;;;;;;2.95;0.75;;;;;;;;;;5032881;28;20056;-68
2021/12/02 11:35:14;;;;;;;2.30;0.70;;;;;;;;;;5025136;28;20048;-68
2021/12/02 11:37:42;;;;;;;4.40;0.70;;;;;;;;;;5037387;28;20061;-68
2021/12/02 11:40:10;;;;;;;2.73;0.67;;;;;;;;;;5027428;28;20320;-68
2021/12/02 11:42:38;;;;;;;4.00;0.90;;;;;;;;;;5037305;28;20391;-68
2021/12/02 11:45:05;;;;;;;0.80;0.60;;;;;;;;;;5031575;28;20049;-68
2021/12/02 11:47:32;;;;;;;1.98;0.50;;;;;;;;;;5034297;28;20064;-68
2021/12/02 11:49:59;;;;;;;2.83;0.75;;;;;;;;;;5034172;28;20052;-68
2021/12/02 11:52:26;;;;;;;5.43;1.13;;;;;;;;;;5030736;28;20067;-68
2021/12/02 11:54:54;;;;;;;4.07;0.85;;;;;;;;;;5036728;28;20068;-68
2021/12/02 11:57:20;;;;;;;2.10;0.70;;;;;;;;;;5029389;28;20064;-68
2021/12/02 11:59:47;;;;;;;2.53;0.70;;;;;;;;;;5034063;28;20057;-68
2021/12/02 12:02:17;;;;;;;3.70;0.80;;;;;;;;;;5022587;28;20059;-68
2021/12/02 12:05:13;;;;;;;1.35;0.68;;;;;;;;;;5039007;28;20797;-69
2021/12/02 12:07:47;;;;;;;2.33;0.73;;;;;;;;;;5023851;28;20557;-68
2021/12/02 12:10:15;;;;;;;1.75;0.60;;;;;;;;;;5037602;28;20783;-68
2021/12/02 12:12:43;;;;;;;1.70;0.50;;;;;;;;;;5038186;28;20064;-68
2021/12/02 12:15:28;;;;;;;1.20;0.52;;;;;;;;;;5025310;28;20056;-68
2021/12/02 12:17:54;;;;;;;2.50;0.47;;;;;;;;;;5033050;28;20049;-69
2021/12/02 12:20:21;;;;;;;0.73;0.40;;;;;;;;;;5028594;28;20084;-69
2021/12/02 12:22:47;;;;;;;1.00;0.30;;;;;;;;;;5038154;28;20512;-69
2021/12/02 12:25:28;;;;;;;1.33;0.60;;;;;;;;;;5032924;28;20103;-69
2021/12/02 12:27:59;;;;;;;2.25;0.50;;;;;;;;;;5037906;28;20502;-69
2021/12/02 12:30:35;;;;;;;2.35;0.80;;;;;;;;;;5026468;28;20049;-69
2021/12/02 12:33:07;;;;;;;0.55;0.50;;;;;;;;;;5038007;28;20048;-69
2021/12/02 12:38:23;;;;;;;0.63;0.52;;;;;;;;;;5032441;28;20053;-69
2021/12/02 12:40:56;;;;;;;1.08;0.55;;;;;;;;;;5036082;28;20056;-69
2021/12/02 12:43:24;;;;;;;0.30;0.30;;;;;;;;;;5030718;28;20052;-69
2021/12/02 12:46:03;;;;;;;2.80;0.65;;;;;;;;;;5036480;28;20549;-69
2021/12/02 12:48:29;;;;;;;;;;;;;;;;;;5034438;28;20496;-69
2021/12/02 12:51:09;;;;;;;1.13;0.60;;;;;;;;;;5041519;28;19931;-69
2021/12/02 12:53:36;;;;;;;0.45;0.40;;;;;;;;;;5035208;28;20549;-69
2021/12/02 12:56:07;;;;;;;0.77;0.33;;;;;;;;;;5038905;28;20410;-69
2021/12/02 12:58:35;;;;;;;1.02;0.40;;;;;;;;;;5035321;28;20049;-69
2021/12/02 13:01:03;;;;;;;0.37;0.37;;;;;;;;;;5034491;28;20045;-69
2021/12/02 13:03:38;;;;;;;2.03;0.45;;;;;;;;;;5040932;28;20110;-69
2021/12/02 13:06:16;;;;;;;1.08;0.43;;;;;;;;;;5034472;28;20049;-69
2021/12/02 13:08:45;;;;;;;1.05;0.70;;;;;;;;;;5037481;28;20502;-69
2021/12/02 13:11:14;;;;;;;1.30;0.68;;;;;;;;;;5024873;28;20489;-69
2021/12/02 13:13:40;;;;;;;1.85;0.70;;;;;;;;;;5034045;28;20071;-69
2021/12/02 13:16:26;;;;;;;1.20;0.47;;;;;;;;;;5032255;28;20506;-69
2021/12/02 13:18:54;;;;;;;2.33;0.52;;;;;;;;;;5037349;28;20045;-69
2021/12/02 13:21:24;;;;;;;0.95;0.45;;;;;;;;;;5038307;28;20482;-69
2021/12/02 13:23:59;;;;;;;2.33;0.47;;;;;;;;;;5028869;28;20055;-69
2021/12/02 13:26:36;;;;;;;1.27;0.50;;;;;;;;;;5032344;28;20055;-69
2021/12/02 13:29:04;;;;;;;1.15;0.50;;;;;;;;;;5033182;28;20061;-69
2021/12/02 13:31:31;;;;;;;0.85;0.55;;;;;;;;;;5038882;28;20056;-69
2021/12/02 13:34:02;;;;;;;2.03;0.77;;;;;;;;;;5032575;28;20568;-68
2021/12/02 13:36:31;;;;;;;0.57;0.57;;;;;;;;;;5035605;28;20430;-68
2021/12/02 13:38:59;;;;;;;0.88;0.52;;;;;;;;;;5022201;28;20243;-69
2021/12/02 13:41:26;;;;;;;1.33;0.60;;;;;;;;;;5033169;28;20056;-69
2021/12/02 13:44:06;;;;;;;1.35;0.50;;;;;;;;;;5037713;28;20056;-68
2021/12/02 13:46:34;;;;;;;1.35;0.82;;;;;;;;;;5029490;28;20570;-69
2021/12/02 13:49:03;;;;;;;0.73;0.60;;;;;;;;;;5037896;28;20091;-69
2021/12/02 13:54:22;;;;;;;2.22;0.70;;;;;;;;;;5031259;28;20056;-69
2021/12/02 13:56:49;;;;;;;3.45;0.68;;;;;;;;;;5027890;28;20052;-69
2021/12/02 13:59:19;;;;;;;1.15;0.70;;;;;;;;;;5036691;28;20064;-68
2021/12/02 14:01:52;;;;;;;0.90;0.80;;;;;;;;;;5030472;28;20060;-69
2021/12/02 14:04:19;;;;;;;2.95;0.80;;;;;;;;;;5034980;28;20045;-69
2021/12/02 14:06:46;;;;;;;2.20;1.00;;;;;;;;;;5030114;28;20064;-69
2021/12/02 14:09:17;;;;;;;3.33;1.08;;;;;;;;;;5023556;28;20072;-69
2021/12/02 14:11:46;;;;;;;2.00;0.95;;;;;;;;;;5035776;28;20520;-69
2021/12/02 14:14:19;;;;;;;2.20;0.70;;;;;;;;;;5028544;28;20048;-69
2021/12/02 14:17:05;;;;;;;3.50;1.23;;;;;;;;;;5036690;28;20049;-70
2021/12/02 14:19:32;;;;;;;2.47;0.80;;;;;;;;;;5026674;28;20143;-70
2021/12/02 14:21:58;;;;;;;4.30;0.90;;;;;;;;;;5035036;28;20068;-70
2021/12/02 14:24:24;;;;;;;3.10;1.00;;;;;;;;;;5038128;28;20048;-70
2021/12/02 14:26:51;;;;;;;5.82;1.27;;;;;;;;;;5032942;28;20061;-70
2021/12/02 14:29:17;;;;;;;5.07;1.17;;;;;;;;;;5040843;28;20059;-70
2021/12/02 14:31:43;;;;;;;5.22;0.88;;;;;;;;;;5032591;28;20049;-70
2021/12/02 14:34:10;;;;;;;1.63;0.80;;;;;;;;;;5033693;28;21207;-70
2021/12/02 14:36:47;;;;;;;2.10;0.95;;;;;;;;;;5027807;28;20045;-69
2021/12/02 14:39:16;;;;;;;3.30;0.98;;;;;;;;;;5037295;28;20044;-69
2021/12/02 14:41:44;;;;;;;3.13;1.08;;;;;;;;;;5033299;28;20147;-69
2021/12/02 14:44:14;;;;;;;5.63;1.02;;;;;;;;;;5038822;28;20036;-69
2021/12/02 14:46:42;;;;;;;4.63;1.23;;;;;;;;;;5034931;28;20049;-69
2021/12/02 14:49:20;;;;;;;4.18;0.80;;;;;;;;;;5027044;28;20628;-69
2021/12/02 14:52:07;;;;;;;3.10;0.77;;;;;;;;;;5038513;28;20513;-69
2021/12/02 14:54:35;;;;;;;3.67;1.27;;;;;;;;;;5031328;28;20059;-69
2021/12/02 14:57:03;;;;;;;3.35;0.88;;;;;;;;;;5038385;28;20057;-70
2021/12/02 14:59:30;;;;;;;5.65;1.42;;;;;;;;;;5030917;28;20069;-69
2021/12/02 15:02:31;;;;;;;4.22;1.10;;;;;;;;;;5031732;28;20442;-70
2021/12/02 15:05:00;;;;;;;3.15;1.00;;;;;;;;;;5029380;28;20045;-69
2021/12/02 15:07:28;;;;;;;2.92;1.10;;;;;;;;;;5038528;28;20490;-70
2021/12/02 15:09:59;;;;;;;1.42;0.80;;;;;;;;;;5032239;28;20075;-70
2021/12/02 15:12:35;;;;;;;6.72;1.02;;;;;;;;;;5030717;28;20045;-70
2021/12/02 15:15:04;;;;;;;4.57;1.40;;;;;;;;;;5034422;28;20140;-70
2021/12/02 15:17:33;;;;;;;5.38;1.30;;;;;;;;;;5027035;28;20512;-69
2021/12/02 15:20:08;;;;;;;4.97;1.10;;;;;;;;;;5039102;28;20053;-69
2021/12/02 15:22:35;;;;;;;2.25;1.17;;;;;;;;;;5031468;28;20063;-70
2021/12/02 15:25:03;;;;;;;7.03;1.42;;;;;;;;;;5039080;28;20600;-69